sensor_id;sensor_type;location;lat;lon;timestamp;pressure;altitude;pressure_sealevel;temperature;humidity
76819;BME280;65772;51.096;17.006;2023-02-18T00:00:10;99995.85;;;9.64;67.32
76819;BME280;65772;51.096;17.006;2023-02-18T00:02:39;99995.63;;;9.62;66.30
76819;BME280;65772;51.096;17.006;2023-02-18T00:05:07;100002.68;;;9.59;65.72
76819;BME280;65772;51.096;17.006;2023-02-18T00:07:35;100002.91;;;9.55;65.28
76819;BME280;65772;51.096;17.006;2023-02-18T00:10:06;100005.88;;;9.51;64.58
76819;BME280;65772;51.096;17.006;2023-02-18T00:12:34;100005.75;;;9.46;63.96
76819;BME280;65772;51.096;17.006;2023-02-18T00:15:02;100005.13;;;9.42;62.74
76819;BME280;65772;51.096;17.006;2023-02-18T00:17:30;100013.08;;;9.40;62.13
76819;BME280;65772;51.096;17.006;2023-02-18T00:19:58;100004.27;;;9.36;61.23
76819;BME280;65772;51.096;17.006;2023-02-18T00:22:26;100008.61;;;9.33;60.91
76819;BME280;65772;51.096;17.006;2023-02-18T00:24:54;100014.52;;;9.31;61.08
76819;BME280;65772;51.096;17.006;2023-02-18T00:27:21;100021.36;;;9.26;61.11
76819;BME280;65772;51.096;17.006;2023-02-18T00:29:49;100022.27;;;9.23;61.38
76819;BME280;65772;51.096;17.006;2023-02-18T00:32:17;100024.75;;;9.20;61.70
76819;BME280;65772;51.096;17.006;2023-02-18T00:34:45;100018.85;;;9.16;61.56
76819;BME280;65772;51.096;17.006;2023-02-18T00:37:12;100018.70;;;9.12;61.26
76819;BME280;65772;51.096;17.006;2023-02-18T00:39:40;100022.39;;;9.09;61.61
76819;BME280;65772;51.096;17.006;2023-02-18T00:42:08;100028.26;;;9.07;61.23
76819;BME280;65772;51.096;17.006;2023-02-18T00:44:35;100028.83;;;9.03;60.97
76819;BME280;65772;51.096;17.006;2023-02-18T00:47:03;100032.34;;;9.01;60.66
76819;BME280;65772;51.096;17.006;2023-02-18T00:49:31;100033.26;;;8.97;60.35
76819;BME280;65772;51.096;17.006;2023-02-18T00:51:59;100036.23;;;8.94;60.06
76819;BME280;65772;51.096;17.006;2023-02-18T00:54:27;100035.77;;;8.92;59.02
76819;BME280;65772;51.096;17.006;2023-02-18T00:56:54;100040.86;;;8.90;58.57
76819;BME280;65772;51.096;17.006;2023-02-18T00:59:22;100039.73;;;8.87;58.09
76819;BME280;65772;51.096;17.006;2023-02-18T01:01:50;100037.27;;;8.84;58.08
76819;BME280;65772;51.096;17.006;2023-02-18T01:04:18;100043.29;;;8.81;58.22
76819;BME280;65772;51.096;17.006;2023-02-18T01:06:48;100042.54;;;8.78;58.23
76819;BME280;65772;51.096;17.006;2023-02-18T01:09:16;100046.70;;;8.75;58.66
76819;BME280;65772;51.096;17.006;2023-02-18T01:11:44;100042.17;;;8.72;58.25
76819;BME280;65772;51.096;17.006;2023-02-18T01:14:11;100047.02;;;8.70;57.74
76819;BME280;65772;51.096;17.006;2023-02-18T01:16:39;100051.55;;;8.67;57.53
76819;BME280;65772;51.096;17.006;2023-02-18T01:19:08;100050.95;;;8.65;56.83
76819;BME280;65772;51.096;17.006;2023-02-18T01:21:37;100050.74;;;8.64;56.03
76819;BME280;65772;51.096;17.006;2023-02-18T01:24:06;100058.67;;;8.62;56.29
76819;BME280;65772;51.096;17.006;2023-02-18T01:26:35;100045.16;;;8.60;55.82
76819;BME280;65772;51.096;17.006;2023-02-18T01:29:03;100052.40;;;8.57;55.56
76819;BME280;65772;51.096;17.006;2023-02-18T01:31:31;100052.99;;;8.54;55.39
76819;BME280;65772;51.096;17.006;2023-02-18T01:33:59;100048.64;;;8.51;55.67
76819;BME280;65772;51.096;17.006;2023-02-18T01:36:29;100045.64;;;8.49;55.89
76819;BME280;65772;51.096;17.006;2023-02-18T01:38:56;100045.09;;;8.46;55.88
76819;BME280;65772;51.096;17.006;2023-02-18T01:41:24;100045.98;;;8.42;55.75
76819;BME280;65772;51.096;17.006;2023-02-18T01:44:13;100053.86;;;8.40;55.46
76819;BME280;65772;51.096;17.006;2023-02-18T01:46:42;100046.63;;;8.36;54.57
76819;BME280;65772;51.096;17.006;2023-02-18T01:49:10;100056.95;;;8.35;54.92
76819;BME280;65772;51.096;17.006;2023-02-18T01:51:42;100052.61;;;8.32;55.04
76819;BME280;65772;51.096;17.006;2023-02-18T01:54:14;100056.75;;;8.30;54.85
76819;BME280;65772;51.096;17.006;2023-02-18T01:56:46;100061.27;;;8.28;54.98
76819;BME280;65772;51.096;17.006;2023-02-18T01:59:19;100068.20;;;8.27;54.89
76819;BME280;65772;51.096;17.006;2023-02-18T02:01:48;100065.92;;;8.24;54.89
76819;BME280;65772;51.096;17.006;2023-02-18T02:04:16;100063.81;;;8.23;55.10
76819;BME280;65772;51.096;17.006;2023-02-18T02:06:44;100062.59;;;8.22;54.99
76819;BME280;65772;51.096;17.006;2023-02-18T02:09:13;100065.38;;;8.19;54.85
76819;BME280;65772;51.096;17.006;2023-02-18T02:12:06;100060.23;;;8.18;55.13
76819;BME280;65772;51.096;17.006;2023-02-18T02:14:52;100064.80;;;8.17;55.51
76819;BME280;65772;51.096;17.006;2023-02-18T02:17:30;100062.38;;;8.16;55.67
76819;BME280;65772;51.096;17.006;2023-02-18T02:20:21;100065.70;;;8.13;55.94
76819;BME280;65772;51.096;17.006;2023-02-18T02:23:17;100069.70;;;8.11;56.42
76819;BME280;65772;51.096;17.006;2023-02-18T02:26:07;100070.48;;;8.09;56.83
76819;BME280;65772;51.096;17.006;2023-02-18T02:29:02;100070.55;;;8.06;57.46
76819;BME280;65772;51.096;17.006;2023-02-18T02:31:47;100074.55;;;8.04;57.61
76819;BME280;65772;51.096;17.006;2023-02-18T02:34:37;100072.94;;;8.01;57.87
76819;BME280;65772;51.096;17.006;2023-02-18T02:37:14;100069.60;;;7.98;58.03
76819;BME280;65772;51.096;17.006;2023-02-18T02:39:55;100069.17;;;7.96;58.14
76819;BME280;65772;51.096;17.006;2023-02-18T02:42:32;100070.98;;;7.94;58.13
76819;BME280;65772;51.096;17.006;2023-02-18T02:45:08;100066.73;;;7.93;58.04
76819;BME280;65772;51.096;17.006;2023-02-18T02:47:42;100069.55;;;7.92;57.86
76819;BME280;65772;51.096;17.006;2023-02-18T02:50:15;100063.73;;;7.91;57.15
76819;BME280;65772;51.096;17.006;2023-02-18T02:52:49;100070.77;;;7.88;56.53
76819;BME280;65772;51.096;17.006;2023-02-18T02:55:19;100070.13;;;7.85;56.52
76819;BME280;65772;51.096;17.006;2023-02-18T02:57:50;100070.06;;;7.82;55.99
76819;BME280;65772;51.096;17.006;2023-02-18T03:00:34;100073.23;;;7.81;55.51
76819;BME280;65772;51.096;17.006;2023-02-18T03:03:16;100074.15;;;7.78;55.55
76819;BME280;65772;51.096;17.006;2023-02-18T03:06:02;100084.27;;;7.76;55.48
76819;BME280;65772;51.096;17.006;2023-02-18T03:08:41;100078.08;;;7.74;55.11
76819;BME280;65772;51.096;17.006;2023-02-18T03:11:15;100080.58;;;7.72;55.05
76819;BME280;65772;51.096;17.006;2023-02-18T03:13:56;100074.75;;;7.71;54.88
76819;BME280;65772;51.096;17.006;2023-02-18T03:16:35;100089.61;;;7.68;54.57
76819;BME280;65772;51.096;17.006;2023-02-18T03:19:13;100088.19;;;7.67;54.80
76819;BME280;65772;51.096;17.006;2023-02-18T03:21:52;100087.98;;;7.66;54.62
76819;BME280;65772;51.096;17.006;2023-02-18T03:24:26;100092.34;;;7.65;54.90
76819;BME280;65772;51.096;17.006;2023-02-18T03:27:09;100097.38;;;7.63;54.91
76819;BME280;65772;51.096;17.006;2023-02-18T03:29:39;100096.49;;;7.62;54.59
76819;BME280;65772;51.096;17.006;2023-02-18T03:32:09;100091.52;;;7.60;54.36
76819;BME280;65772;51.096;17.006;2023-02-18T03:34:44;100102.01;;;7.59;54.19
76819;BME280;65772;51.096;17.006;2023-02-18T03:37:14;100106.70;;;7.58;54.15
76819;BME280;65772;51.096;17.006;2023-02-18T03:39:47;100106.16;;;7.57;54.18
76819;BME280;65772;51.096;17.006;2023-02-18T03:42:16;100107.09;;;7.55;53.99
76819;BME280;65772;51.096;17.006;2023-02-18T03:44:45;100106.68;;;7.53;53.88
76819;BME280;65772;51.096;17.006;2023-02-18T03:47:13;100105.05;;;7.50;53.90
76819;BME280;65772;51.096;17.006;2023-02-18T03:49:41;100108.60;;;7.49;54.08
76819;BME280;65772;51.096;17.006;2023-02-18T03:52:10;100119.39;;;7.48;53.92
76819;BME280;65772;51.096;17.006;2023-02-18T03:54:38;100121.35;;;7.46;53.79
76819;BME280;65772;51.096;17.006;2023-02-18T03:57:05;100123.10;;;7.43;53.82
76819;BME280;65772;51.096;17.006;2023-02-18T03:59:33;100126.38;;;7.39;53.72
76819;BME280;65772;51.096;17.006;2023-02-18T04:02:01;100133.41;;;7.37;53.67
76819;BME280;65772;51.096;17.006;2023-02-18T04:04:29;100129.89;;;7.34;53.53
76819;BME280;65772;51.096;17.006;2023-02-18T04:06:57;100143.57;;;7.32;53.79
76819;BME280;65772;51.096;17.006;2023-02-18T04:09:25;100147.58;;;7.30;53.78
76819;BME280;65772;51.096;17.006;2023-02-18T04:11:53;100144.29;;;7.28;53.78
76819;BME280;65772;51.096;17.006;2023-02-18T04:14:21;100140.79;;;7.25;53.85
76819;BME280;65772;51.096;17.006;2023-02-18T04:16:48;100137.83;;;7.24;53.82
76819;BME280;65772;51.096;17.006;2023-02-18T04:19:16;100145.26;;;7.23;53.78
76819;BME280;65772;51.096;17.006;2023-02-18T04:21:44;100141.99;;;7.22;53.85
76819;BME280;65772;51.096;17.006;2023-02-18T04:24:11;100138.75;;;7.22;53.88
76819;BME280;65772;51.096;17.006;2023-02-18T04:26:39;100136.73;;;7.22;53.90
76819;BME280;65772;51.096;17.006;2023-02-18T04:29:08;100137.27;;;7.22;53.99
76819;BME280;65772;51.096;17.006;2023-02-18T04:31:36;100139.52;;;7.24;53.98
76819;BME280;65772;51.096;17.006;2023-02-18T04:34:04;100138.40;;;7.25;54.06
76819;BME280;65772;51.096;17.006;2023-02-18T04:36:31;100139.13;;;7.26;54.20
76819;BME280;65772;51.096;17.006;2023-02-18T04:38:59;100139.02;;;7.28;54.28
76819;BME280;65772;51.096;17.006;2023-02-18T04:41:27;100138.76;;;7.30;54.33
76819;BME280;65772;51.096;17.006;2023-02-18T04:43:54;100136.12;;;7.32;54.72
76819;BME280;65772;51.096;17.006;2023-02-18T04:46:22;100137.89;;;7.39;55.94
76819;BME280;65772;51.096;17.006;2023-02-18T04:48:50;100137.54;;;7.47;56.51
76819;BME280;65772;51.096;17.006;2023-02-18T04:51:18;100130.58;;;7.51;55.89
76819;BME280;65772;51.096;17.006;2023-02-18T04:53:45;100134.89;;;7.54;55.41
76819;BME280;65772;51.096;17.006;2023-02-18T04:56:13;100129.50;;;7.55;55.05
76819;BME280;65772;51.096;17.006;2023-02-18T04:58:41;100130.67;;;7.54;54.71
76819;BME280;65772;51.096;17.006;2023-02-18T05:01:10;100128.61;;;7.54;54.47
76819;BME280;65772;51.096;17.006;2023-02-18T05:03:37;100132.94;;;7.51;54.20
76819;BME280;65772;51.096;17.006;2023-02-18T05:06:06;100126.06;;;7.49;54.31
76819;BME280;65772;51.096;17.006;2023-02-18T05:08:36;100132.67;;;7.49;54.25
76819;BME280;65772;51.096;17.006;2023-02-18T05:11:06;100132.66;;;7.48;54.15
76819;BME280;65772;51.096;17.006;2023-02-18T05:13:34;100134.00;;;7.48;54.06
76819;BME280;65772;51.096;17.006;2023-02-18T05:16:02;100127.03;;;7.48;54.19
76819;BME280;65772;51.096;17.006;2023-02-18T05:18:30;100134.36;;;7.48;54.01
76819;BME280;65772;51.096;17.006;2023-02-18T05:20:58;100134.22;;;7.49;53.89
76819;BME280;65772;51.096;17.006;2023-02-18T05:23:26;100132.88;;;7.49;54.07
76819;BME280;65772;51.096;17.006;2023-02-18T05:25:54;100137.83;;;7.50;53.88
76819;BME280;65772;51.096;17.006;2023-02-18T05:28:22;100140.70;;;7.50;53.72
76819;BME280;65772;51.096;17.006;2023-02-18T05:30:50;100144.62;;;7.50;53.55
76819;BME280;65772;51.096;17.006;2023-02-18T05:33:18;100143.89;;;7.49;53.35
76819;BME280;65772;51.096;17.006;2023-02-18T05:35:46;100141.66;;;7.48;53.38
76819;BME280;65772;51.096;17.006;2023-02-18T05:38:14;100143.01;;;7.48;53.23
76819;BME280;65772;51.096;17.006;2023-02-18T05:40:42;100154.23;;;7.48;52.97
76819;BME280;65772;51.096;17.006;2023-02-18T05:43:10;100156.80;;;7.49;52.99
76819;BME280;65772;51.096;17.006;2023-02-18T05:45:37;100153.27;;;7.50;53.06
76819;BME280;65772;51.096;17.006;2023-02-18T05:48:05;100151.95;;;7.51;53.21
76819;BME280;65772;51.096;17.006;2023-02-18T05:50:33;100159.80;;;7.52;52.97
76819;BME280;65772;51.096;17.006;2023-02-18T05:53:01;100159.86;;;7.54;52.93
76819;BME280;65772;51.096;17.006;2023-02-18T05:55:29;100161.86;;;7.57;52.93
76819;BME280;65772;51.096;17.006;2023-02-18T05:57:57;100165.13;;;7.58;52.89
76819;BME280;65772;51.096;17.006;2023-02-18T06:00:24;100166.89;;;7.59;52.86
76819;BME280;65772;51.096;17.006;2023-02-18T06:02:52;100168.14;;;7.61;52.70
76819;BME280;65772;51.096;17.006;2023-02-18T06:05:20;100170.66;;;7.60;52.49
76819;BME280;65772;51.096;17.006;2023-02-18T06:07:48;100168.50;;;7.61;52.38
76819;BME280;65772;51.096;17.006;2023-02-18T06:10:16;100174.80;;;7.61;52.48
76819;BME280;65772;51.096;17.006;2023-02-18T06:12:44;100179.61;;;7.64;52.15
76819;BME280;65772;51.096;17.006;2023-02-18T06:15:12;100183.04;;;7.64;52.24
76819;BME280;65772;51.096;17.006;2023-02-18T06:17:40;100186.45;;;7.65;52.28
76819;BME280;65772;51.096;17.006;2023-02-18T06:20:09;100185.64;;;7.66;52.29
76819;BME280;65772;51.096;17.006;2023-02-18T06:22:36;100185.53;;;7.67;52.37
76819;BME280;65772;51.096;17.006;2023-02-18T06:25:05;100183.77;;;7.70;52.18
76819;BME280;65772;51.096;17.006;2023-02-18T06:27:33;100186.27;;;7.73;52.19
76819;BME280;65772;51.096;17.006;2023-02-18T06:30:01;100180.48;;;7.73;51.95
76819;BME280;65772;51.096;17.006;2023-02-18T06:32:29;100181.17;;;7.73;52.03
76819;BME280;65772;51.096;17.006;2023-02-18T06:34:56;100183.27;;;7.75;52.04
76819;BME280;65772;51.096;17.006;2023-02-18T06:37:24;100187.27;;;7.77;51.88
76819;BME280;65772;51.096;17.006;2023-02-18T06:39:52;100189.91;;;7.80;51.90
76819;BME280;65772;51.096;17.006;2023-02-18T06:42:20;100194.58;;;7.82;51.91
76819;BME280;65772;51.096;17.006;2023-02-18T06:44:47;100194.98;;;7.83;51.91
76819;BME280;65772;51.096;17.006;2023-02-18T06:47:15;100195.60;;;7.86;52.09
76819;BME280;65772;51.096;17.006;2023-02-18T06:49:43;100197.89;;;7.88;52.03
76819;BME280;65772;51.096;17.006;2023-02-18T06:52:10;100193.89;;;7.90;52.08
76819;BME280;65772;51.096;17.006;2023-02-18T06:54:38;100195.50;;;7.92;52.11
76819;BME280;65772;51.096;17.006;2023-02-18T06:57:06;100193.38;;;7.95;52.21
76819;BME280;65772;51.096;17.006;2023-02-18T06:59:34;100195.27;;;7.96;52.18
76819;BME280;65772;51.096;17.006;2023-02-18T07:02:02;100195.51;;;7.97;52.17
76819;BME280;65772;51.096;17.006;2023-02-18T07:04:29;100198.77;;;7.99;52.35
76819;BME280;65772;51.096;17.006;2023-02-18T07:06:57;100194.09;;;8.00;51.91
76819;BME280;65772;51.096;17.006;2023-02-18T07:09:25;100198.27;;;8.03;52.16
76819;BME280;65772;51.096;17.006;2023-02-18T07:11:53;100202.60;;;8.05;52.24
76819;BME280;65772;51.096;17.006;2023-02-18T07:14:20;100199.43;;;8.07;52.20
76819;BME280;65772;51.096;17.006;2023-02-18T07:16:50;100198.98;;;8.09;52.14
76819;BME280;65772;51.096;17.006;2023-02-18T07:19:18;100206.05;;;8.11;51.97
76819;BME280;65772;51.096;17.006;2023-02-18T07:21:45;100205.56;;;8.12;51.95
76819;BME280;65772;51.096;17.006;2023-02-18T07:24:13;100202.90;;;8.13;52.20
76819;BME280;65772;51.096;17.006;2023-02-18T07:26:41;100200.55;;;8.14;51.97
76819;BME280;65772;51.096;17.006;2023-02-18T07:29:09;100200.59;;;8.15;52.13
76819;BME280;65772;51.096;17.006;2023-02-18T07:31:36;100206.41;;;8.17;52.10
76819;BME280;65772;51.096;17.006;2023-02-18T07:34:04;100214.86;;;8.20;52.32
76819;BME280;65772;51.096;17.006;2023-02-18T07:36:32;100209.99;;;8.21;51.89
76819;BME280;65772;51.096;17.006;2023-02-18T07:39:00;100214.18;;;8.24;51.95
76819;BME280;65772;51.096;17.006;2023-02-18T07:41:28;100208.83;;;8.27;51.94
76819;BME280;65772;51.096;17.006;2023-02-18T07:43:56;100207.39;;;8.29;51.96
76819;BME280;65772;51.096;17.006;2023-02-18T07:46:23;100207.89;;;8.33;51.79
76819;BME280;65772;51.096;17.006;2023-02-18T07:48:51;100208.52;;;8.36;51.78
76819;BME280;65772;51.096;17.006;2023-02-18T07:51:19;100215.41;;;8.39;51.77
76819;BME280;65772;51.096;17.006;2023-02-18T07:53:47;100212.81;;;8.42;51.69
76819;BME280;65772;51.096;17.006;2023-02-18T07:56:15;100212.61;;;8.45;51.67
76819;BME280;65772;51.096;17.006;2023-02-18T07:58:44;100209.48;;;8.49;51.74
76819;BME280;65772;51.096;17.006;2023-02-18T08:01:14;100203.94;;;8.51;51.75
76819;BME280;65772;51.096;17.006;2023-02-18T08:03:42;100205.08;;;8.54;51.70
76819;BME280;65772;51.096;17.006;2023-02-18T08:06:19;100203.80;;;8.57;51.69
76819;BME280;65772;51.096;17.006;2023-02-18T08:08:47;100206.08;;;8.58;51.60
76819;BME280;65772;51.096;17.006;2023-02-18T08:11:16;100207.33;;;8.60;51.51
76819;BME280;65772;51.096;17.006;2023-02-18T08:13:46;100209.48;;;8.63;51.76
76819;BME280;65772;51.096;17.006;2023-02-18T08:16:14;100205.84;;;8.65;51.73
76819;BME280;65772;51.096;17.006;2023-02-18T08:18:43;100208.51;;;8.70;51.78
76819;BME280;65772;51.096;17.006;2023-02-18T08:21:11;100214.94;;;8.74;51.70
76819;BME280;65772;51.096;17.006;2023-02-18T08:23:39;100215.60;;;8.77;51.55
76819;BME280;65772;51.096;17.006;2023-02-18T08:26:07;100211.43;;;8.81;51.61
76819;BME280;65772;51.096;17.006;2023-02-18T08:28:42;100211.73;;;8.84;51.61
76819;BME280;65772;51.096;17.006;2023-02-18T08:31:16;100203.44;;;8.86;51.65
76819;BME280;65772;51.096;17.006;2023-02-18T08:33:46;100208.59;;;8.87;51.88
76819;BME280;65772;51.096;17.006;2023-02-18T08:36:14;100200.20;;;8.91;51.50
76819;BME280;65772;51.096;17.006;2023-02-18T08:38:42;100210.75;;;8.95;51.33
76819;BME280;65772;51.096;17.006;2023-02-18T08:41:10;100196.95;;;9.00;51.53
76819;BME280;65772;51.096;17.006;2023-02-18T08:43:38;100187.92;;;9.05;51.43
76819;BME280;65772;51.096;17.006;2023-02-18T08:46:06;100201.33;;;9.08;51.15
76819;BME280;65772;51.096;17.006;2023-02-18T08:48:33;100194.75;;;9.11;51.35
76819;BME280;65772;51.096;17.006;2023-02-18T08:51:10;100201.81;;;9.13;51.20
76819;BME280;65772;51.096;17.006;2023-02-18T08:53:39;100207.31;;;9.15;51.11
76819;BME280;65772;51.096;17.006;2023-02-18T08:56:09;100202.13;;;9.13;50.71
76819;BME280;65772;51.096;17.006;2023-02-18T08:58:36;100208.14;;;9.09;50.52
76819;BME280;65772;51.096;17.006;2023-02-18T09:01:07;100207.38;;;9.07;50.62
76819;BME280;65772;51.096;17.006;2023-02-18T09:03:36;100210.02;;;9.04;50.80
76819;BME280;65772;51.096;17.006;2023-02-18T09:06:05;100212.29;;;9.01;50.86
76819;BME280;65772;51.096;17.006;2023-02-18T09:08:33;100205.13;;;9.00;50.65
76819;BME280;65772;51.096;17.006;2023-02-18T09:11:03;100202.42;;;9.00;50.81
76819;BME280;65772;51.096;17.006;2023-02-18T09:13:32;100205.35;;;9.02;50.76
76819;BME280;65772;51.096;17.006;2023-02-18T09:16:02;100192.15;;;9.04;51.02
76819;BME280;65772;51.096;17.006;2023-02-18T09:18:31;100187.42;;;9.05;50.87
76819;BME280;65772;51.096;17.006;2023-02-18T09:20:59;100188.13;;;9.06;50.88
76819;BME280;65772;51.096;17.006;2023-02-18T09:23:29;100184.60;;;9.03;50.87
76819;BME280;65772;51.096;17.006;2023-02-18T09:25:57;100184.66;;;9.05;51.26
76819;BME280;65772;51.096;17.006;2023-02-18T09:28:25;100187.16;;;9.03;51.09
76819;BME280;65772;51.096;17.006;2023-02-18T09:30:53;100185.83;;;8.98;51.11
76819;BME280;65772;51.096;17.006;2023-02-18T09:33:22;100186.38;;;8.95;51.29
76819;BME280;65772;51.096;17.006;2023-02-18T09:35:49;100185.84;;;8.94;51.08
76819;BME280;65772;51.096;17.006;2023-02-18T09:38:17;100187.02;;;8.93;51.57
76819;BME280;65772;51.096;17.006;2023-02-18T09:40:47;100190.02;;;8.96;51.67
76819;BME280;65772;51.096;17.006;2023-02-18T09:43:23;100183.92;;;8.97;52.05
76819;BME280;65772;51.096;17.006;2023-02-18T09:45:54;100176.65;;;8.99;51.99
76819;BME280;65772;51.096;17.006;2023-02-18T09:48:27;100180.73;;;8.98;52.01
76819;BME280;65772;51.096;17.006;2023-02-18T09:50:55;100176.63;;;8.98;52.29
76819;BME280;65772;51.096;17.006;2023-02-18T09:53:24;100173.48;;;8.96;53.04
76819;BME280;65772;51.096;17.006;2023-02-18T09:55:53;100177.23;;;8.96;53.12
76819;BME280;65772;51.096;17.006;2023-02-18T09:58:24;100171.11;;;9.01;53.32
76819;BME280;65772;51.096;17.006;2023-02-18T10:00:58;100174.27;;;9.09;53.43
76819;BME280;65772;51.096;17.006;2023-02-18T10:03:30;100172.94;;;9.15;53.23
76819;BME280;65772;51.096;17.006;2023-02-18T10:06:01;100177.94;;;9.17;53.03
76819;BME280;65772;51.096;17.006;2023-02-18T10:08:32;100180.58;;;9.20;53.17
76819;BME280;65772;51.096;17.006;2023-02-18T10:11:01;100177.96;;;9.18;53.45
76819;BME280;65772;51.096;17.006;2023-02-18T10:13:31;100174.38;;;9.18;53.55
76819;BME280;65772;51.096;17.006;2023-02-18T10:15:59;100178.52;;;9.09;53.63
76819;BME280;65772;51.096;17.006;2023-02-18T10:18:30;100167.34;;;9.06;53.90
76819;BME280;65772;51.096;17.006;2023-02-18T10:21:06;100160.70;;;9.01;54.08
76819;BME280;65772;51.096;17.006;2023-02-18T10:23:38;100153.15;;;8.98;54.37
76819;BME280;65772;51.096;17.006;2023-02-18T10:26:11;100148.77;;;9.00;54.67
76819;BME280;65772;51.096;17.006;2023-02-18T10:28:41;100149.94;;;8.99;55.21
76819;BME280;65772;51.096;17.006;2023-02-18T10:31:11;100148.08;;;9.00;55.18
76819;BME280;65772;51.096;17.006;2023-02-18T10:33:46;100142.66;;;9.01;55.91
76819;BME280;65772;51.096;17.006;2023-02-18T10:36:25;100138.90;;;9.01;56.05
76819;BME280;65772;51.096;17.006;2023-02-18T10:39:12;100137.55;;;9.01;56.72
76819;BME280;65772;51.096;17.006;2023-02-18T10:41:51;100126.45;;;8.99;57.16
76819;BME280;65772;51.096;17.006;2023-02-18T10:44:32;100117.27;;;9.00;57.36
76819;BME280;65772;51.096;17.006;2023-02-18T10:47:14;100111.58;;;9.03;57.47
76819;BME280;65772;51.096;17.006;2023-02-18T10:49:58;100103.57;;;9.03;58.87
76819;BME280;65772;51.096;17.006;2023-02-18T10:52:28;100099.00;;;9.04;59.09
76819;BME280;65772;51.096;17.006;2023-02-18T10:55:02;100092.23;;;9.00;59.65
76819;BME280;65772;51.096;17.006;2023-02-18T10:57:31;100085.75;;;8.94;59.63
76819;BME280;65772;51.096;17.006;2023-02-18T11:00:02;100077.16;;;8.86;59.68
76819;BME280;65772;51.096;17.006;2023-02-18T11:02:37;100069.45;;;8.79;60.06
76819;BME280;65772;51.096;17.006;2023-02-18T11:05:17;100065.84;;;8.72;60.00
76819;BME280;65772;51.096;17.006;2023-02-18T11:07:48;100058.35;;;8.67;60.24
76819;BME280;65772;51.096;17.006;2023-02-18T11:10:21;100047.91;;;8.65;60.42
76819;BME280;65772;51.096;17.006;2023-02-18T11:12:54;100044.98;;;8.69;60.50
76819;BME280;65772;51.096;17.006;2023-02-18T11:15:24;100043.67;;;8.76;60.83
76819;BME280;65772;51.096;17.006;2023-02-18T11:17:53;100036.45;;;8.85;60.90
76819;BME280;65772;51.096;17.006;2023-02-18T11:20:27;100029.95;;;8.89;60.84
76819;BME280;65772;51.096;17.006;2023-02-18T11:23:17;100021.05;;;8.88;60.83
76819;BME280;65772;51.096;17.006;2023-02-18T11:26:02;100021.30;;;8.85;61.16
76819;BME280;65772;51.096;17.006;2023-02-18T11:28:39;100010.95;;;8.81;61.32
76819;BME280;65772;51.096;17.006;2023-02-18T11:31:09;100005.16;;;8.81;61.21
76819;BME280;65772;51.096;17.006;2023-02-18T11:33:41;100000.30;;;8.83;61.39
76819;BME280;65772;51.096;17.006;2023-02-18T11:36:20;99992.48;;;8.89;61.55
76819;BME280;65772;51.096;17.006;2023-02-18T11:38:50;99983.48;;;9.01;62.62
76819;BME280;65772;51.096;17.006;2023-02-18T11:41:21;99971.00;;;9.11;62.81
76819;BME280;65772;51.096;17.006;2023-02-18T11:43:50;99967.60;;;9.16;62.55
76819;BME280;65772;51.096;17.006;2023-02-18T11:46:21;99960.56;;;9.20;62.49
76819;BME280;65772;51.096;17.006;2023-02-18T11:48:50;99955.14;;;9.21;62.32
76819;BME280;65772;51.096;17.006;2023-02-18T11:51:22;99943.39;;;9.22;62.23
76819;BME280;65772;51.096;17.006;2023-02-18T11:53:56;99929.42;;;9.22;62.22
76819;BME280;65772;51.096;17.006;2023-02-18T11:56:28;99926.52;;;9.21;62.17
76819;BME280;65772;51.096;17.006;2023-02-18T11:58:56;99923.30;;;9.21;62.41
76819;BME280;65772;51.096;17.006;2023-02-18T12:01:35;99924.12;;;9.21;62.58
76819;BME280;65772;51.096;17.006;2023-02-18T12:04:10;99920.52;;;9.19;62.77
76819;BME280;65772;51.096;17.006;2023-02-18T12:06:44;99913.66;;;9.18;62.90
76819;BME280;65772;51.096;17.006;2023-02-18T12:09:21;99908.17;;;9.17;63.35
76819;BME280;65772;51.096;17.006;2023-02-18T12:11:53;99896.58;;;9.16;63.45
76819;BME280;65772;51.096;17.006;2023-02-18T12:14:22;99884.95;;;9.15;63.34
76819;BME280;65772;51.096;17.006;2023-02-18T12:17:21;99876.41;;;9.14;63.72
76819;BME280;65772;51.096;17.006;2023-02-18T12:20:09;99868.39;;;9.13;63.75
76819;BME280;65772;51.096;17.006;2023-02-18T12:22:42;99859.63;;;9.16;63.77
76819;BME280;65772;51.096;17.006;2023-02-18T12:25:23;99857.96;;;9.17;64.23
76819;BME280;65772;51.096;17.006;2023-02-18T12:27:59;99852.87;;;9.18;64.34
76819;BME280;65772;51.096;17.006;2023-02-18T12:30:42;99843.33;;;9.18;64.70
76819;BME280;65772;51.096;17.006;2023-02-18T12:33:21;99842.97;;;9.17;64.92
76819;BME280;65772;51.096;17.006;2023-02-18T12:36:05;99841.48;;;9.19;65.30
76819;BME280;65772;51.096;17.006;2023-02-18T12:38:50;99828.29;;;9.16;65.79
76819;BME280;65772;51.096;17.006;2023-02-18T12:41:24;99814.39;;;9.12;65.86
76819;BME280;65772;51.096;17.006;2023-02-18T12:44:01;99807.46;;;9.08;66.29
76819;BME280;65772;51.096;17.006;2023-02-18T12:46:45;99806.13;;;9.03;66.24
76819;BME280;65772;51.096;17.006;2023-02-18T12:49:38;99799.95;;;9.01;66.68
76819;BME280;65772;51.096;17.006;2023-02-18T12:52:18;99785.98;;;9.00;67.14
76819;BME280;65772;51.096;17.006;2023-02-18T12:55:25;99767.42;;;9.01;66.62
76819;BME280;65772;51.096;17.006;2023-02-18T12:58:02;99762.83;;;8.99;66.93
76819;BME280;65772;51.096;17.006;2023-02-18T13:00:52;99760.77;;;8.99;67.63
76819;BME280;65772;51.096;17.006;2023-02-18T13:03:59;99753.53;;;8.96;67.54
76819;BME280;65772;51.096;17.006;2023-02-18T13:06:52;99731.71;;;8.95;67.81
76819;BME280;65772;51.096;17.006;2023-02-18T13:09:37;99713.09;;;8.99;67.84
76819;BME280;65772;51.096;17.006;2023-02-18T13:12:13;99721.29;;;9.00;68.28